sensor_id;sensor_type;location;lat;lon;timestamp;P1;durP1;ratioP1;P2;durP2;ratioP2
47329;SDS011;33060;50.178;7.570;2023-03-01T00:01:06;11.80;;;8.97;;
47329;SDS011;33060;50.178;7.570;2023-03-01T00:03:35;12.53;;;9.23;;
47329;SDS011;33060;50.178;7.570;2023-03-01T00:06:02;12.50;;;9.97;;
47329;SDS011;33060;50.178;7.570;2023-03-01T00:08:30;9.57;;;8.53;;
47329;SDS011;33060;50.178;7.570;2023-03-01T00:11:01;10.07;;;8.27;;
47329;SDS011;33060;50.178;7.570;2023-03-01T00:13:39;14.63;;;8.90;;
47329;SDS011;33060;50.178;7.570;2023-03-01T00:16:07;12.03;;;8.93;;
47329;SDS011;33060;50.178;7.570;2023-03-01T00:18:36;12.20;;;9.37;;
47329;SDS011;33060;50.178;7.570;2023-03-01T00:21:03;11.93;;;8.90;;
47329;SDS011;33060;50.178;7.570;2023-03-01T00:23:31;13.10;;;9.77;;
47329;SDS011;33060;50.178;7.570;2023-03-01T00:26:00;12.37;;;9.23;;
47329;SDS011;33060;50.178;7.570;2023-03-01T00:28:27;13.07;;;9.40;;
47329;SDS011;33060;50.178;7.570;2023-03-01T00:30:53;13.17;;;9.33;;
47329;SDS011;33060;50.178;7.570;2023-03-01T00:33:20;11.73;;;9.60;;
47329;SDS011;33060;50.178;7.570;2023-03-01T00:35:47;13.07;;;9.30;;
47329;SDS011;33060;50.178;7.570;2023-03-01T00:38:13;11.87;;;8.60;;
47329;SDS011;33060;50.178;7.570;2023-03-01T00:40:40;12.90;;;9.60;;
47329;SDS011;33060;50.178;7.570;2023-03-01T00:43:06;13.17;;;9.27;;
47329;SDS011;33060;50.178;7.570;2023-03-01T00:45:34;11.97;;;9.73;;
47329;SDS011;33060;50.178;7.570;2023-03-01T00:48:01;17.47;;;10.10;;
47329;SDS011;33060;50.178;7.570;2023-03-01T00:50:27;12.50;;;9.53;;
47329;SDS011;33060;50.178;7.570;2023-03-01T00:52:54;13.20;;;9.60;;
47329;SDS011;33060;50.178;7.570;2023-03-01T00:55:22;14.17;;;9.93;;
47329;SDS011;33060;50.178;7.570;2023-03-01T00:57:49;13.57;;;9.47;;
47329;SDS011;33060;50.178;7.570;2023-03-01T01:00:16;15.00;;;10.73;;
47329;SDS011;33060;50.178;7.570;2023-03-01T01:02:43;12.70;;;10.17;;
47329;SDS011;33060;50.178;7.570;2023-03-01T01:05:10;14.00;;;10.27;;
47329;SDS011;33060;50.178;7.570;2023-03-01T01:07:37;14.23;;;10.00;;
47329;SDS011;33060;50.178;7.570;2023-03-01T01:10:04;13.23;;;9.77;;
47329;SDS011;33060;50.178;7.570;2023-03-01T01:12:32;20.80;;;15.17;;
47329;SDS011;33060;50.178;7.570;2023-03-01T01:14:59;14.87;;;10.00;;
47329;SDS011;33060;50.178;7.570;2023-03-01T01:17:25;14.90;;;10.70;;
47329;SDS011;33060;50.178;7.570;2023-03-01T01:19:52;12.97;;;10.47;;
47329;SDS011;33060;50.178;7.570;2023-03-01T01:22:18;14.33;;;9.73;;
47329;SDS011;33060;50.178;7.570;2023-03-01T01:24:45;14.90;;;10.40;;
47329;SDS011;33060;50.178;7.570;2023-03-01T01:27:12;15.70;;;10.80;;
47329;SDS011;33060;50.178;7.570;2023-03-01T01:29:38;12.60;;;9.40;;
47329;SDS011;33060;50.178;7.570;2023-03-01T01:32:05;15.43;;;9.77;;
47329;SDS011;33060;50.178;7.570;2023-03-01T01:34:32;16.30;;;10.87;;
47329;SDS011;33060;50.178;7.570;2023-03-01T01:36:58;13.60;;;10.40;;
47329;SDS011;33060;50.178;7.570;2023-03-01T01:39:29;13.43;;;10.23;;
47329;SDS011;33060;50.178;7.570;2023-03-01T01:41:55;16.57;;;10.77;;
47329;SDS011;33060;50.178;7.570;2023-03-01T01:44:26;14.37;;;10.37;;
47329;SDS011;33060;50.178;7.570;2023-03-01T01:49:33;14.23;;;10.23;;
47329;SDS011;33060;50.178;7.570;2023-03-01T01:57:16;14.00;;;9.80;;
47329;SDS011;33060;50.178;7.570;2023-03-01T01:59:50;14.37;;;10.40;;
47329;SDS011;33060;50.178;7.570;2023-03-01T02:02:21;15.17;;;10.80;;
47329;SDS011;33060;50.178;7.570;2023-03-01T02:04:49;14.30;;;10.10;;
47329;SDS011;33060;50.178;7.570;2023-03-01T02:07:22;15.30;;;10.77;;
47329;SDS011;33060;50.178;7.570;2023-03-01T02:09:51;14.40;;;9.77;;
47329;SDS011;33060;50.178;7.570;2023-03-01T02:12:20;14.57;;;10.23;;
47329;SDS011;33060;50.178;7.570;2023-03-01T02:14:50;13.20;;;10.43;;
47329;SDS011;33060;50.178;7.570;2023-03-01T02:17:17;15.77;;;10.73;;
47329;SDS011;33060;50.178;7.570;2023-03-01T02:19:55;13.77;;;10.30;;
47329;SDS011;33060;50.178;7.570;2023-03-01T02:22:34;13.97;;;10.00;;
47329;SDS011;33060;50.178;7.570;2023-03-01T02:27:58;15.33;;;11.10;;
47329;SDS011;33060;50.178;7.570;2023-03-01T02:30:26;13.83;;;10.43;;
47329;SDS011;33060;50.178;7.570;2023-03-01T02:32:55;15.00;;;11.27;;
47329;SDS011;33060;50.178;7.570;2023-03-01T02:35:29;15.57;;;10.53;;
47329;SDS011;33060;50.178;7.570;2023-03-01T02:38:00;16.13;;;10.63;;
47329;SDS011;33060;50.178;7.570;2023-03-01T02:40:28;15.57;;;10.90;;
47329;SDS011;33060;50.178;7.570;2023-03-01T02:42:57;15.53;;;11.37;;
47329;SDS011;33060;50.178;7.570;2023-03-01T02:45:26;14.60;;;10.57;;
47329;SDS011;33060;50.178;7.570;2023-03-01T02:47:54;14.53;;;10.77;;
47329;SDS011;33060;50.178;7.570;2023-03-01T02:55:48;14.63;;;10.50;;
47329;SDS011;33060;50.178;7.570;2023-03-01T02:58:15;15.03;;;10.93;;
47329;SDS011;33060;50.178;7.570;2023-03-01T03:00:42;18.57;;;10.87;;
47329;SDS011;33060;50.178;7.570;2023-03-01T03:03:19;15.63;;;11.50;;
47329;SDS011;33060;50.178;7.570;2023-03-01T03:05:47;15.80;;;10.67;;
47329;SDS011;33060;50.178;7.570;2023-03-01T03:08:15;14.90;;;10.40;;
47329;SDS011;33060;50.178;7.570;2023-03-01T03:10:50;14.53;;;11.33;;
47329;SDS011;33060;50.178;7.570;2023-03-01T03:13:17;15.37;;;11.07;;
47329;SDS011;33060;50.178;7.570;2023-03-01T03:15:45;15.60;;;11.57;;
47329;SDS011;33060;50.178;7.570;2023-03-01T03:18:13;14.23;;;10.07;;
47329;SDS011;33060;50.178;7.570;2023-03-01T03:20:42;16.83;;;11.27;;
47329;SDS011;33060;50.178;7.570;2023-03-01T03:23:10;17.20;;;11.87;;
47329;SDS011;33060;50.178;7.570;2023-03-01T03:25:37;16.90;;;11.87;;
47329;SDS011;33060;50.178;7.570;2023-03-01T03:28:05;18.07;;;11.73;;
47329;SDS011;33060;50.178;7.570;2023-03-01T03:30:37;15.73;;;11.00;;
47329;SDS011;33060;50.178;7.570;2023-03-01T03:33:05;13.43;;;10.10;;
47329;SDS011;33060;50.178;7.570;2023-03-01T03:35:34;14.63;;;10.60;;
47329;SDS011;33060;50.178;7.570;2023-03-01T03:38:07;17.33;;;11.07;;
47329;SDS011;33060;50.178;7.570;2023-03-01T03:40:52;15.53;;;10.60;;
47329;SDS011;33060;50.178;7.570;2023-03-01T03:43:30;17.77;;;12.53;;
47329;SDS011;33060;50.178;7.570;2023-03-01T03:45:58;15.87;;;10.23;;
47329;SDS011;33060;50.178;7.570;2023-03-01T03:48:25;16.73;;;11.33;;
47329;SDS011;33060;50.178;7.570;2023-03-01T03:50:53;16.07;;;11.33;;
47329;SDS011;33060;50.178;7.570;2023-03-01T03:53:22;17.57;;;11.60;;
47329;SDS011;33060;50.178;7.570;2023-03-01T03:55:51;18.40;;;12.00;;
47329;SDS011;33060;50.178;7.570;2023-03-01T03:58:18;17.27;;;11.60;;
47329;SDS011;33060;50.178;7.570;2023-03-01T04:00:47;18.87;;;11.90;;
47329;SDS011;33060;50.178;7.570;2023-03-01T04:03:16;15.43;;;10.97;;
47329;SDS011;33060;50.178;7.570;2023-03-01T04:05:45;16.40;;;11.73;;
47329;SDS011;33060;50.178;7.570;2023-03-01T04:08:13;16.53;;;11.60;;
47329;SDS011;33060;50.178;7.570;2023-03-01T04:10:41;17.17;;;11.70;;
47329;SDS011;33060;50.178;7.570;2023-03-01T04:13:11;15.67;;;11.63;;
47329;SDS011;33060;50.178;7.570;2023-03-01T04:15:39;15.20;;;11.33;;
47329;SDS011;33060;50.178;7.570;2023-03-01T04:18:07;18.83;;;12.37;;
47329;SDS011;33060;50.178;7.570;2023-03-01T04:20:41;18.00;;;12.30;;
47329;SDS011;33060;50.178;7.570;2023-03-01T04:23:15;17.07;;;11.43;;
47329;SDS011;33060;50.178;7.570;2023-03-01T04:25:55;18.20;;;11.57;;
47329;SDS011;33060;50.178;7.570;2023-03-01T04:28:24;16.73;;;12.00;;
47329;SDS011;33060;50.178;7.570;2023-03-01T04:30:53;17.93;;;11.97;;
47329;SDS011;33060;50.178;7.570;2023-03-01T04:33:22;17.57;;;11.63;;
47329;SDS011;33060;50.178;7.570;2023-03-01T04:35:49;19.50;;;12.23;;
47329;SDS011;33060;50.178;7.570;2023-03-01T04:38:17;16.90;;;11.57;;
47329;SDS011;33060;50.178;7.570;2023-03-01T04:40:44;16.90;;;11.43;;
47329;SDS011;33060;50.178;7.570;2023-03-01T04:43:11;16.00;;;13.43;;
47329;SDS011;33060;50.178;7.570;2023-03-01T04:45:41;16.57;;;12.03;;
47329;SDS011;33060;50.178;7.570;2023-03-01T04:48:08;17.27;;;12.03;;
47329;SDS011;33060;50.178;7.570;2023-03-01T04:50:35;18.07;;;13.00;;
47329;SDS011;33060;50.178;7.570;2023-03-01T04:53:01;17.97;;;11.83;;
47329;SDS011;33060;50.178;7.570;2023-03-01T04:55:28;19.87;;;12.70;;
47329;SDS011;33060;50.178;7.570;2023-03-01T04:57:55;17.40;;;11.73;;
47329;SDS011;33060;50.178;7.570;2023-03-01T05:00:22;16.40;;;12.20;;
47329;SDS011;33060;50.178;7.570;2023-03-01T05:05:26;18.43;;;12.00;;
47329;SDS011;33060;50.178;7.570;2023-03-01T05:07:59;19.60;;;12.27;;
47329;SDS011;33060;50.178;7.570;2023-03-01T05:10:28;16.93;;;11.13;;
47329;SDS011;33060;50.178;7.570;2023-03-01T05:12:56;17.83;;;13.00;;
47329;SDS011;33060;50.178;7.570;2023-03-01T05:15:24;19.30;;;12.67;;
47329;SDS011;33060;50.178;7.570;2023-03-01T05:17:56;18.17;;;12.47;;
47329;SDS011;33060;50.178;7.570;2023-03-01T05:20:27;18.70;;;12.30;;
47329;SDS011;33060;50.178;7.570;2023-03-01T05:22:57;16.93;;;12.37;;
47329;SDS011;33060;50.178;7.570;2023-03-01T05:25:26;19.67;;;12.73;;
47329;SDS011;33060;50.178;7.570;2023-03-01T05:27:53;18.03;;;12.47;;
47329;SDS011;33060;50.178;7.570;2023-03-01T05:30:20;18.07;;;13.00;;
47329;SDS011;33060;50.178;7.570;2023-03-01T05:32:49;19.00;;;11.90;;
47329;SDS011;33060;50.178;7.570;2023-03-01T05:35:22;19.23;;;13.30;;
47329;SDS011;33060;50.178;7.570;2023-03-01T05:37:49;19.93;;;12.40;;
47329;SDS011;33060;50.178;7.570;2023-03-01T05:40:17;20.33;;;12.47;;
47329;SDS011;33060;50.178;7.570;2023-03-01T05:42:46;17.07;;;11.13;;
47329;SDS011;33060;50.178;7.570;2023-03-01T05:45:15;18.40;;;13.27;;
47329;SDS011;33060;50.178;7.570;2023-03-01T05:47:43;19.73;;;12.50;;
47329;SDS011;33060;50.178;7.570;2023-03-01T05:50:21;20.00;;;13.93;;
47329;SDS011;33060;50.178;7.570;2023-03-01T05:52:50;18.20;;;13.47;;
47329;SDS011;33060;50.178;7.570;2023-03-01T05:55:19;19.87;;;13.03;;
47329;SDS011;33060;50.178;7.570;2023-03-01T05:57:47;17.57;;;11.97;;
47329;SDS011;33060;50.178;7.570;2023-03-01T06:00:17;17.03;;;11.37;;
47329;SDS011;33060;50.178;7.570;2023-03-01T06:02:45;19.40;;;12.80;;
47329;SDS011;33060;50.178;7.570;2023-03-01T06:05:14;19.30;;;12.87;;
47329;SDS011;33060;50.178;7.570;2023-03-01T06:07:41;18.23;;;12.87;;
47329;SDS011;33060;50.178;7.570;2023-03-01T06:10:09;17.97;;;12.70;;
47329;SDS011;33060;50.178;7.570;2023-03-01T06:12:37;19.30;;;12.83;;
47329;SDS011;33060;50.178;7.570;2023-03-01T06:15:05;18.43;;;13.20;;
47329;SDS011;33060;50.178;7.570;2023-03-01T06:17:33;17.63;;;12.47;;
47329;SDS011;33060;50.178;7.570;2023-03-01T06:20:11;18.10;;;12.27;;
47329;SDS011;33060;50.178;7.570;2023-03-01T06:22:38;19.80;;;12.23;;
47329;SDS011;33060;50.178;7.570;2023-03-01T06:25:05;17.10;;;10.90;;
47329;SDS011;33060;50.178;7.570;2023-03-01T06:27:32;18.80;;;11.93;;
47329;SDS011;33060;50.178;7.570;2023-03-01T06:29:59;18.33;;;12.43;;
47329;SDS011;33060;50.178;7.570;2023-03-01T06:32:26;18.90;;;11.53;;
47329;SDS011;33060;50.178;7.570;2023-03-01T06:34:52;19.10;;;11.80;;
47329;SDS011;33060;50.178;7.570;2023-03-01T06:37:19;22.23;;;13.97;;
47329;SDS011;33060;50.178;7.570;2023-03-01T06:39:46;19.90;;;12.63;;
47329;SDS011;33060;50.178;7.570;2023-03-01T06:42:12;19.67;;;12.43;;
47329;SDS011;33060;50.178;7.570;2023-03-01T06:44:39;20.20;;;13.13;;
47329;SDS011;33060;50.178;7.570;2023-03-01T06:47:05;14.50;;;10.10;;
47329;SDS011;33060;50.178;7.570;2023-03-01T06:49:32;15.37;;;10.63;;
47329;SDS011;33060;50.178;7.570;2023-03-01T06:51:59;18.07;;;12.63;;
47329;SDS011;33060;50.178;7.570;2023-03-01T06:54:25;18.30;;;12.67;;
47329;SDS011;33060;50.178;7.570;2023-03-01T06:56:52;20.97;;;13.20;;
47329;SDS011;33060;50.178;7.570;2023-03-01T06:59:19;18.10;;;13.10;;
47329;SDS011;33060;50.178;7.570;2023-03-01T07:01:45;19.83;;;12.63;;
47329;SDS011;33060;50.178;7.570;2023-03-01T07:04:12;16.80;;;11.33;;
47329;SDS011;33060;50.178;7.570;2023-03-01T07:06:39;19.17;;;11.63;;
47329;SDS011;33060;50.178;7.570;2023-03-01T07:09:06;17.50;;;12.70;;
47329;SDS011;33060;50.178;7.570;2023-03-01T07:11:33;19.73;;;12.67;;
47329;SDS011;33060;50.178;7.570;2023-03-01T07:13:59;18.83;;;12.30;;
47329;SDS011;33060;50.178;7.570;2023-03-01T07:16:26;15.37;;;10.77;;
47329;SDS011;33060;50.178;7.570;2023-03-01T07:18:53;19.73;;;12.83;;
47329;SDS011;33060;50.178;7.570;2023-03-01T07:21:20;18.37;;;12.00;;
47329;SDS011;33060;50.178;7.570;2023-03-01T07:23:47;22.70;;;12.20;;
47329;SDS011;33060;50.178;7.570;2023-03-01T07:26:14;17.90;;;11.90;;
47329;SDS011;33060;50.178;7.570;2023-03-01T07:28:41;16.63;;;11.03;;
47329;SDS011;33060;50.178;7.570;2023-03-01T07:31:08;18.97;;;12.33;;
47329;SDS011;33060;50.178;7.570;2023-03-01T07:33:34;17.80;;;11.80;;
47329;SDS011;33060;50.178;7.570;2023-03-01T07:36:02;17.80;;;12.60;;
47329;SDS011;33060;50.178;7.570;2023-03-01T07:38:30;18.23;;;12.70;;
47329;SDS011;33060;50.178;7.570;2023-03-01T07:41:00;18.83;;;11.87;;
47329;SDS011;33060;50.178;7.570;2023-03-01T07:43:28;18.37;;;12.60;;
47329;SDS011;33060;50.178;7.570;2023-03-01T07:46:00;18.07;;;12.67;;
47329;SDS011;33060;50.178;7.570;2023-03-01T07:48:27;16.60;;;10.60;;
47329;SDS011;33060;50.178;7.570;2023-03-01T07:50:54;18.23;;;12.23;;
47329;SDS011;33060;50.178;7.570;2023-03-01T07:53:23;19.07;;;12.40;;
47329;SDS011;33060;50.178;7.570;2023-03-01T07:55:50;19.07;;;11.47;;
47329;SDS011;33060;50.178;7.570;2023-03-01T07:58:26;19.27;;;12.40;;
47329;SDS011;33060;50.178;7.570;2023-03-01T08:00:53;19.57;;;12.20;;
47329;SDS011;33060;50.178;7.570;2023-03-01T08:03:19;15.83;;;11.77;;
47329;SDS011;33060;50.178;7.570;2023-03-01T08:05:46;18.07;;;12.13;;
47329;SDS011;33060;50.178;7.570;2023-03-01T08:08:13;16.97;;;12.00;;
47329;SDS011;33060;50.178;7.570;2023-03-01T08:10:39;18.53;;;12.23;;
47329;SDS011;33060;50.178;7.570;2023-03-01T08:13:06;16.30;;;12.40;;
47329;SDS011;33060;50.178;7.570;2023-03-01T08:15:32;17.70;;;10.90;;
47329;SDS011;33060;50.178;7.570;2023-03-01T08:17:59;20.03;;;13.47;;
47329;SDS011;33060;50.178;7.570;2023-03-01T08:20:27;19.53;;;13.37;;
47329;SDS011;33060;50.178;7.570;2023-03-01T08:22:53;16.87;;;12.27;;
47329;SDS011;33060;50.178;7.570;2023-03-01T08:25:20;16.13;;;12.17;;
47329;SDS011;33060;50.178;7.570;2023-03-01T08:27:46;15.93;;;12.50;;
47329;SDS011;33060;50.178;7.570;2023-03-01T08:30:13;17.30;;;12.40;;
47329;SDS011;33060;50.178;7.570;2023-03-01T08:32:40;16.53;;;13.10;;
47329;SDS011;33060;50.178;7.570;2023-03-01T08:35:07;17.30;;;12.50;;
47329;SDS011;33060;50.178;7.570;2023-03-01T08:37:34;16.77;;;12.90;;
47329;SDS011;33060;50.178;7.570;2023-03-01T08:40:00;17.73;;;12.77;;
47329;SDS011;33060;50.178;7.570;2023-03-01T08:42:27;17.80;;;12.77;;
47329;SDS011;33060;50.178;7.570;2023-03-01T08:44:54;15.80;;;12.43;;
47329;SDS011;33060;50.178;7.570;2023-03-01T08:47:20;16.53;;;12.77;;
47329;SDS011;33060;50.178;7.570;2023-03-01T08:49:48;15.80;;;12.20;;
47329;SDS011;33060;50.178;7.570;2023-03-01T08:52:16;18.47;;;12.43;;
47329;SDS011;33060;50.178;7.570;2023-03-01T08:54:43;18.30;;;13.00;;
47329;SDS011;33060;50.178;7.570;2023-03-01T08:57:09;17.13;;;13.00;;
47329;SDS011;33060;50.178;7.570;2023-03-01T08:59:36;16.20;;;13.30;;
47329;SDS011;33060;50.178;7.570;2023-03-01T09:02:04;16.47;;;12.57;;
47329;SDS011;33060;50.178;7.570;2023-03-01T09:04:32;18.00;;;12.93;;
47329;SDS011;33060;50.178;7.570;2023-03-01T09:06:59;18.17;;;13.43;;
47329;SDS011;33060;50.178;7.570;2023-03-01T09:09:26;17.00;;;13.20;;
47329;SDS011;33060;50.178;7.570;2023-03-01T09:11:52;18.57;;;13.13;;
47329;SDS011;33060;50.178;7.570;2023-03-01T09:14:19;17.00;;;12.87;;
47329;SDS011;33060;50.178;7.570;2023-03-01T09:16:46;18.87;;;13.00;;
47329;SDS011;33060;50.178;7.570;2023-03-01T09:19:13;16.13;;;12.80;;
47329;SDS011;33060;50.178;7.570;2023-03-01T09:21:40;15.90;;;12.87;;
47329;SDS011;33060;50.178;7.570;2023-03-01T09:24:14;17.57;;;13.20;;
47329;SDS011;33060;50.178;7.570;2023-03-01T09:26:41;15.47;;;12.63;;
47329;SDS011;33060;50.178;7.570;2023-03-01T09:29:08;17.33;;;13.50;;
47329;SDS011;33060;50.178;7.570;2023-03-01T09:31:36;20.10;;;15.17;;
47329;SDS011;33060;50.178;7.570;2023-03-01T09:34:03;18.17;;;13.50;;
47329;SDS011;33060;50.178;7.570;2023-03-01T09:36:29;19.23;;;14.50;;
47329;SDS011;33060;50.178;7.570;2023-03-01T09:38:59;16.47;;;13.50;;
47329;SDS011;33060;50.178;7.570;2023-03-01T09:44:06;16.30;;;12.47;;
47329;SDS011;33060;50.178;7.570;2023-03-01T09:46:37;17.30;;;12.80;;
47329;SDS011;33060;50.178;7.570;2023-03-01T09:49:12;17.73;;;13.70;;
47329;SDS011;33060;50.178;7.570;2023-03-01T09:51:49;17.00;;;13.20;;
47329;SDS011;33060;50.178;7.570;2023-03-01T09:54:26;17.67;;;13.43;;
47329;SDS011;33060;50.178;7.570;2023-03-01T09:57:03;17.60;;;12.93;;
47329;SDS011;33060;50.178;7.570;2023-03-01T10:02:37;17.57;;;13.40;;
47329;SDS011;33060;50.178;7.570;2023-03-01T10:10:37;17.47;;;13.63;;
47329;SDS011;33060;50.178;7.570;2023-03-01T10:13:17;16.03;;;12.90;;
47329;SDS011;33060;50.178;7.570;2023-03-01T10:15:56;17.47;;;13.13;;
47329;SDS011;33060;50.178;7.570;2023-03-01T10:18:29;19.83;;;13.50;;
47329;SDS011;33060;50.178;7.570;2023-03-01T10:21:09;16.33;;;12.27;;
47329;SDS011;33060;50.178;7.570;2023-03-01T10:23:42;17.03;;;13.07;;
47329;SDS011;33060;50.178;7.570;2023-03-01T10:29:19;18.87;;;13.30;;
47329;SDS011;33060;50.178;7.570;2023-03-01T10:31:51;17.07;;;13.60;;
47329;SDS011;33060;50.178;7.570;2023-03-01T10:36:59;17.27;;;13.67;;
47329;SDS011;33060;50.178;7.570;2023-03-01T10:39:35;17.37;;;13.73;;
47329;SDS011;33060;50.178;7.570;2023-03-01T10:42:03;18.40;;;14.07;;
47329;SDS011;33060;50.178;7.570;2023-03-01T10:44:38;17.10;;;13.53;;
47329;SDS011;33060;50.178;7.570;2023-03-01T10:47:12;18.27;;;13.37;;
47329;SDS011;33060;50.178;7.570;2023-03-01T10:49:51;16.60;;;13.17;;
47329;SDS011;33060;50.178;7.570;2023-03-01T10:52:37;18.57;;;13.07;;
47329;SDS011;33060;50.178;7.570;2023-03-01T10:57:43;17.90;;;13.37;;
47329;SDS011;33060;50.178;7.570;2023-03-01T11:00:23;17.10;;;13.47;;
47329;SDS011;33060;50.178;7.570;2023-03-01T11:05:24;16.90;;;13.93;;
47329;SDS011;33060;50.178;7.570;2023-03-01T11:07:52;17.60;;;13.67;;
47329;SDS011;33060;50.178;7.570;2023-03-01T11:10:24;18.43;;;13.70;;
47329;SDS011;33060;50.178;7.570;2023-03-01T11:12:53;20.37;;;13.80;;
47329;SDS011;33060;50.178;7.570;2023-03-01T11:15:33;20.63;;;14.47;;
47329;SDS011;33060;50.178;7.570;2023-03-01T11:18:00;17.73;;;14.10;;
47329;SDS011;33060;50.178;7.570;2023-03-01T11:20:39;18.83;;;13.77;;
47329;SDS011;33060;50.178;7.570;2023-03-01T11:23:09;16.93;;;13.57;;
47329;SDS011;33060;50.178;7.570;2023-03-01T11:25:42;18.30;;;13.90;;
47329;SDS011;33060;50.178;7.570;2023-03-01T11:28:13;18.37;;;14.47;;
47329;SDS011;33060;50.178;7.570;2023-03-01T11:30:53;16.93;;;14.20;;
47329;SDS011;33060;50.178;7.570;2023-03-01T11:36:13;17.43;;;13.83;;
47329;SDS011;33060;50.178;7.570;2023-03-01T11:38:50;15.93;;;13.03;;
47329;SDS011;33060;50.178;7.570;2023-03-01T11:41:18;16.13;;;12.67;;
47329;SDS011;33060;50.178;7.570;2023-03-01T11:44:05;18.27;;;13.47;;
47329;SDS011;33060;50.178;7.570;2023-03-01T12:00:36;17.93;;;13.13;;
47329;SDS011;33060;50.178;7.570;2023-03-01T12:06:01;14.77;;;12.30;;
47329;SDS011;33060;50.178;7.570;2023-03-01T12:08:42;15.77;;;12.43;;
47329;SDS011;33060;50.178;7.570;2023-03-01T12:11:23;16.73;;;12.20;;
47329;SDS011;33060;50.178;7.570;2023-03-01T12:52:13;14.47;;;11.67;;
47329;SDS011;33060;50.178;7.570;2023-03-01T12:54:42;17.17;;;12.17;;
47329;SDS011;33060;50.178;7.570;2023-03-01T13:02:48;15.40;;;11.23;;
47329;SDS011;33060;50.178;7.570;2023-03-01T13:08:20;15.57;;;11.10;;
47329;SDS011;33060;50.178;7.570;2023-03-01T13:11:02;13.30;;;10.27;;
47329;SDS011;33060;50.178;7.570;2023-03-01T13:13:31;13.80;;;9.60;;
47329;SDS011;33060;50.178;7.570;2023-03-01T13:15:58;12.87;;;10.10;;
47329;SDS011;33060;50.178;7.570;2023-03-01T13:19:18;14.10;;;10.03;;
47329;SDS011;33060;50.178;7.570;2023-03-01T13:21:45;12.43;;;10.47;;
47329;SDS011;33060;50.178;7.570;2023-03-01T13:32:33;13.03;;;10.27;;
47329;SDS011;33060;50.178;7.570;2023-03-01T13:37:37;11.40;;;9.50;;
47329;SDS011;33060;50.178;7.570;2023-03-01T13:40:05;10.33;;;8.70;;
47329;SDS011;33060;50.178;7.570;2023-03-01T13:42:54;10.13;;;8.40;;
47329;SDS011;33060;50.178;7.570;2023-03-01T13:45:40;11.73;;;8.80;;
47329;SDS011;33060;50.178;7.570;2023-03-01T13:48:28;10.27;;;8.47;;
47329;SDS011;33060;50.178;7.570;2023-03-01T13:51:00;11.57;;;9.33;;
47329;SDS011;33060;50.178;7.570;2023-03-01T13:53:31;10.27;;;8.57;;
47329;SDS011;33060;50.178;7.570;2023-03-01T13:56:03;11.97;;;8.63;;
47329;SDS011;33060;50.178;7.570;2023-03-01T14:01:34;10.90;;;7.60;;
47329;SDS011;33060;50.178;7.570;2023-03-01T14:04:03;10.17;;;7.97;;
47329;SDS011;33060;50.178;7.570;2023-03-01T14:06:44;9.07;;;7.87;;
47329;SDS011;33060;50.178;7.570;2023-03-01T14:19:27;7.93;;;7.03;;
47329;SDS011;33060;50.178;7.570;2023-03-01T14:24:58;9.43;;;6.97;;
47329;SDS011;33060;50.178;7.570;2023-03-01T14:27:28;8.93;;;6.80;;
47329;SDS011;33060;50.178;7.570;2023-03-01T14:30:00;9.90;;;7.00;;
47329;SDS011;33060;50.178;7.570;2023-03-01T14:32:31;10.50;;;7.40;;
47329;SDS011;33060;50.178;7.570;2023-03-01T14:34:59;9.63;;;6.97;;
47329;SDS011;33060;50.178;7.570;2023-03-01T14:37:28;9.33;;;7.67;;
47329;SDS011;33060;50.178;7.570;2023-03-01T14:39:58;8.83;;;7.17;;
47329;SDS011;33060;50.178;7.570;2023-03-01T14:42:27;8.73;;;7.23;;
47329;SDS011;33060;50.178;7.570;2023-03-01T14:45:00;8.97;;;7.07;;
47329;SDS011;33060;50.178;7.570;2023-03-01T14:47:30;9.40;;;6.50;;
47329;SDS011;33060;50.178;7.570;2023-03-01T14:49:59;9.43;;;6.30;;
47329;SDS011;33060;50.178;7.570;2023-03-01T14:52:48;8.00;;;6.13;;
47329;SDS011;33060;50.178;7.570;2023-03-01T14:55:19;7.57;;;6.43;;
47329;SDS011;33060;50.178;7.570;2023-03-01T14:57:51;8.37;;;6.20;;
47329;SDS011;33060;50.178;7.570;2023-03-01T15:00:20;8.03;;;6.10;;
47329;SDS011;33060;50.178;7.570;2023-03-01T15:02:50;8.63;;;6.20;;
47329;SDS011;33060;50.178;7.570;2023-03-01T15:05:22;9.17;;;6.40;;
47329;SDS011;33060;50.178;7.570;2023-03-01T15:07:54;7.73;;;5.80;;
47329;SDS011;33060;50.178;7.570;2023-03-01T15:10:24;8.67;;;6.20;;
47329;SDS011;33060;50.178;7.570;2023-03-01T15:12:53;8.30;;;5.90;;
47329;SDS011;33060;50.178;7.570;2023-03-01T15:15:22;7.00;;;5.57;;
47329;SDS011;33060;50.178;7.570;2023-03-01T15:17:57;6.87;;;5.70;;
47329;SDS011;33060;50.178;7.570;2023-03-01T15:20:26;10.50;;;6.07;;
47329;SDS011;33060;50.178;7.570;2023-03-01T15:22:55;7.53;;;5.73;;
47329;SDS011;33060;50.178;7.570;2023-03-01T15:25:28;8.13;;;6.43;;
47329;SDS011;33060;50.178;7.570;2023-03-01T15:27:56;10.03;;;6.13;;
47329;SDS011;33060;50.178;7.570;2023-03-01T15:30:26;8.00;;;5.57;;
47329;SDS011;33060;50.178;7.570;2023-03-01T15:33:17;7.73;;;5.87;;
47329;SDS011;33060;50.178;7.570;2023-03-01T15:35:56;9.03;;;5.80;;
47329;SDS011;33060;50.178;7.570;2023-03-01T15:38:37;8.63;;;5.70;;
47329;SDS011;33060;50.178;7.570;2023-03-01T15:41:27;7.87;;;6.03;;
47329;SDS011;33060;50.178;7.570;2023-03-01T15:43:54;7.17;;;6.03;;
47329;SDS011;33060;50.178;7.570;2023-03-01T15:46:31;9.10;;;6.23;;
47329;SDS011;33060;50.178;7.570;2023-03-01T15:49:02;6.47;;;5.70;;
47329;SDS011;33060;50.178;7.570;2023-03-01T15:51:32;8.70;;;5.60;;
47329;SDS011;33060;50.178;7.570;2023-03-01T15:54:02;7.80;;;6.20;;
47329;SDS011;33060;50.178;7.570;2023-03-01T15:56:32;7.27;;;5.27;;
47329;SDS011;33060;50.178;7.570;2023-03-01T15:59:00;7.07;;;5.23;;
47329;SDS011;33060;50.178;7.570;2023-03-01T16:01:28;10.50;;;6.17;;
47329;SDS011;33060;50.178;7.570;2023-03-01T16:03:55;8.60;;;5.87;;
47329;SDS011;33060;50.178;7.570;2023-03-01T16:06:24;8.13;;;6.10;;
47329;SDS011;33060;50.178;7.570;2023-03-01T16:08:51;6.93;;;5.47;;
47329;SDS011;33060;50.178;7.570;2023-03-01T16:11:18;7.77;;;5.73;;
47329;SDS011;33060;50.178;7.570;2023-03-01T16:13:46;6.77;;;5.73;;
47329;SDS011;33060;50.178;7.570;2023-03-01T16:16:14;8.07;;;5.70;;
47329;SDS011;33060;50.178;7.570;2023-03-01T16:18:43;9.17;;;5.77;;
47329;SDS011;33060;50.178;7.570;2023-03-01T16:21:12;7.77;;;6.37;;
47329;SDS011;33060;50.178;7.570;2023-03-01T16:23:42;6.50;;;5.83;;
47329;SDS011;33060;50.178;7.570;2023-03-01T16:26:10;8.50;;;6.90;;
47329;SDS011;33060;50.178;7.570;2023-03-01T16:28:37;8.57;;;6.50;;
47329;SDS011;33060;50.178;7.570;2023-03-01T16:31:03;7.63;;;5.97;;
47329;SDS011;33060;50.178;7.570;2023-03-01T16:33:31;7.67;;;6.13;;
47329;SDS011;33060;50.178;7.570;2023-03-01T16:36:09;9.97;;;6.03;;
47329;SDS011;33060;50.178;7.570;2023-03-01T16:38:37;8.00;;;6.50;;
47329;SDS011;33060;50.178;7.570;2023-03-01T16:41:04;6.73;;;5.73;;
47329;SDS011;33060;50.178;7.570;2023-03-01T16:43:31;8.93;;;6.07;;
47329;SDS011;33060;50.178;7.570;2023-03-01T16:45:58;9.17;;;5.90;;
47329;SDS011;33060;50.178;7.570;2023-03-01T16:48:25;7.93;;;6.30;;
47329;SDS011;33060;50.178;7.570;2023-03-01T16:50:56;7.30;;;5.97;;
47329;SDS011;33060;50.178;7.570;2023-03-01T16:53:24;9.00;;;6.20;;
47329;SDS011;33060;50.178;7.570;2023-03-01T16:55:57;8.53;;;6.60;;
47329;SDS011;33060;50.178;7.570;2023-03-01T16:58:24;9.70;;;6.60;;